Time;durP1;ratioP1;P1;durP2;ratioP2;P2;SDS_P1;SDS_P2;PMS_P1;PMS_P2;Temp;Humidity;BMP_temperature;BMP_pressure;BME280_temperature;BME280_humidity;BME280_pressure;Samples;Min_cycle;Max_cycle;Signal;HPM_P1;HPM_P2
2023/03/02 00:00:58;;;;;;;26.17;11.73;;;;;;;5.38;100.00;100694.00;5038806;28;20151;-34
2023/03/02 00:03:24;;;;;;;22.05;9.63;;;;;;;5.33;100.00;100688.41;5031752;28;20033;-33
2023/03/02 00:05:49;;;;;;;26.40;10.73;;;;;;;5.32;100.00;100667.41;5030705;28;20399;-33
2023/03/02 00:08:17;;;;;;;22.33;11.25;;;;;;;5.54;100.00;100666.69;5039657;28;20033;-33
2023/03/02 00:10:43;;;;;;;22.83;10.25;;;;;;;5.67;100.00;100683.84;5039802;28;20029;-32
2023/03/02 00:13:12;;;;;;;23.00;10.40;;;;;;;5.58;100.00;100686.50;5035287;28;20060;-34
2023/03/02 00:15:38;;;;;;;19.90;10.68;;;;;;;5.43;100.00;100661.75;5039357;28;20037;-35
2023/03/02 00:18:03;;;;;;;23.42;9.82;;;;;;;5.75;100.00;100684.63;5018459;28;20087;-32
2023/03/02 00:20:29;;;;;;;20.65;9.75;;;;;;;5.54;100.00;100682.56;5038727;28;20578;-35
2023/03/02 00:22:54;;;;;;;21.38;10.20;;;;;;;5.50;100.00;100678.59;5047562;28;20416;-34
2023/03/02 00:25:20;;;;;;;21.92;10.05;;;;;;;5.45;100.00;100680.91;5045643;28;20036;-31
2023/03/02 00:27:48;;;;;;;19.38;9.05;;;;;;;5.51;100.00;100674.94;5036332;28;20108;-31
2023/03/02 00:30:14;;;;;;;18.75;10.05;;;;;;;5.47;100.00;100657.75;5045041;28;20051;-32
2023/03/02 00:32:39;;;;;;;19.00;8.50;;;;;;;5.56;100.00;100667.34;5044267;28;20033;-33
2023/03/02 00:35:05;;;;;;;19.52;9.38;;;;;;;5.40;100.00;100673.50;5039818;28;20034;-36
2023/03/02 00:37:31;;;;;;;20.40;9.70;;;;;;;5.49;100.00;100673.47;5030570;28;20028;-34
2023/03/02 00:39:56;;;;;;;21.75;10.57;;;;;;;5.72;100.00;100682.34;5041391;28;20037;-39
2023/03/02 00:42:22;;;;;;;19.23;8.40;;;;;;;5.80;100.00;100681.44;5030017;28;20045;-33
2023/03/02 00:44:48;;;;;;;19.38;9.00;;;;;;;5.80;100.00;100668.22;5043765;28;20029;-32
2023/03/02 00:47:16;;;;;;;17.75;8.73;;;;;;;5.75;100.00;100681.16;5049765;28;20154;-35
2023/03/02 00:49:48;;;;;;;18.23;9.30;;;;;;;5.56;100.00;100656.75;5043963;28;20032;-32
2023/03/02 00:52:14;;;;;;;19.35;9.07;;;;;;;5.58;100.00;100651.31;5033544;28;20068;-31
2023/03/02 00:54:40;;;;;;;21.50;9.32;;;;;;;5.56;100.00;100654.09;5040041;28;20040;-33
2023/03/02 00:57:05;;;;;;;22.20;8.93;;;;;;;5.63;100.00;100664.81;5029757;28;20037;-32
2023/03/02 00:59:31;;;;;;;29.95;10.10;;;;;;;5.48;100.00;100651.50;5040830;28;20512;-37
2023/03/02 01:02:02;;;;;;;20.58;9.77;;;;;;;5.66;100.00;100671.59;5029305;28;20027;-33
2023/03/02 01:04:36;;;;;;;19.15;10.25;;;;;;;5.41;100.00;100650.50;5040917;28;20123;-39
2023/03/02 01:07:11;;;;;;;20.45;8.27;;;;;;;5.31;100.00;100663.97;5050097;28;20053;-31
2023/03/02 01:09:38;;;;;;;21.17;8.50;;;;;;;5.26;100.00;100652.22;5034214;28;20417;-35
2023/03/02 01:12:08;;;;;;;15.93;8.32;;;;;;;5.41;100.00;100674.31;5040278;28;20100;-30
2023/03/02 01:14:34;;;;;;;20.63;8.52;;;;;;;5.46;100.00;100661.41;5038160;28;20037;-32
2023/03/02 01:16:59;;;;;;;17.85;8.25;;;;;;;5.31;100.00;100663.13;5035430;28;20029;-34
2023/03/02 01:19:25;;;;;;;22.27;8.98;;;;;;;5.30;100.00;100672.06;5031787;28;20037;-30
2023/03/02 01:21:50;;;;;;;22.70;9.00;;;;;;;5.37;100.00;100651.84;5029564;28;20032;-32
2023/03/02 01:24:16;;;;;;;17.83;8.13;;;;;;;5.45;100.00;100675.63;5042788;28;20037;-33
2023/03/02 01:26:41;;;;;;;18.98;9.55;;;;;;;5.59;100.00;100672.28;5038021;28;20025;-31
2023/03/02 01:29:06;;;;;;;21.67;10.27;;;;;;;5.67;100.00;100657.38;5032392;28;20041;-32
2023/03/02 01:31:32;;;;;;;21.27;9.73;;;;;;;5.82;100.00;100661.78;5037581;28;20534;-32
2023/03/02 01:33:57;;;;;;;20.02;8.90;;;;;;;5.51;100.00;100652.97;5032144;28;20497;-33
2023/03/02 01:36:23;;;;;;;19.63;10.30;;;;;;;5.49;100.00;100649.66;5037965;28;20022;-32
2023/03/02 01:38:49;;;;;;;19.10;9.55;;;;;;;5.61;100.00;100665.00;5031869;28;20135;-33
2023/03/02 01:41:15;;;;;;;17.90;9.55;;;;;;;5.66;100.00;100671.59;5044058;28;20025;-31
2023/03/02 01:43:41;;;;;;;20.17;8.82;;;;;;;5.67;100.00;100652.09;5032254;28;20041;-29
2023/03/02 01:46:18;;;;;;;19.95;8.07;;;;;;;5.56;100.00;100651.47;5037935;28;20036;-33
2023/03/02 01:48:51;;;;;;;17.27;7.90;;;;;;;5.59;100.00;100676.75;5032158;28;20025;-32
2023/03/02 01:51:22;;;;;;;20.75;9.45;;;;;;;5.41;100.00;100647.88;5037415;28;20040;-32
2023/03/02 01:54:08;;;;;;;20.10;9.25;;;;;;;5.49;100.00;100650.47;5031572;28;20021;-32
2023/03/02 01:56:38;;;;;;;18.05;9.23;;;;;;;5.39;100.00;100647.22;5032963;28;20635;-32
2023/03/02 01:59:14;;;;;;;20.52;8.85;;;;;;;5.59;100.00;100661.69;5042977;28;20029;-35
2023/03/02 02:01:43;;;;;;;18.45;10.02;;;;;;;5.63;100.00;100663.00;5041726;28;20063;-33
2023/03/02 02:04:09;;;;;;;18.00;8.63;;;;;;;5.59;100.00;100637.88;5040130;28;20060;-31
2023/03/02 02:06:41;;;;;;;15.50;8.15;;;;;;;5.67;100.00;100655.53;5044521;28;20060;-33
2023/03/02 02:09:11;;;;;;;16.77;8.52;;;;;;;5.68;100.00;100645.78;5037213;28;20025;-31
2023/03/02 02:11:38;;;;;;;20.25;9.52;;;;;;;5.58;100.00;100638.88;5043665;28;20577;-32
2023/03/02 02:14:05;;;;;;;19.60;9.60;;;;;;;5.54;100.00;100637.59;5036695;28;20029;-32
2023/03/02 02:16:32;;;;;;;21.23;11.10;;;;;;;5.63;100.00;100639.19;5041394;28;20065;-31
2023/03/02 02:18:59;;;;;;;19.67;10.00;;;;;;;5.71;100.00;100640.16;5035708;28;20041;-35
2023/03/02 02:21:27;;;;;;;28.40;16.35;;;;;;;5.82;100.00;100637.94;5032635;28;20559;-32
2023/03/02 02:24:06;;;;;;;32.70;17.80;;;;;;;5.99;100.00;100662.53;5045457;28;20043;-31
2023/03/02 02:26:51;;;;;;;26.70;16.02;;;;;;;5.88;100.00;100654.13;5041410;28;20030;-31
2023/03/02 02:29:26;;;;;;;27.63;18.80;;;;;;;5.90;100.00;100637.06;5035360;28;20151;-32
2023/03/02 02:31:54;;;;;;;20.88;10.23;;;;;;;5.93;100.00;100657.91;5041293;28;20037;-32
2023/03/02 02:34:29;;;;;;;22.35;10.38;;;;;;;5.76;100.00;100651.03;5035217;28;20129;-32
2023/03/02 02:37:02;;;;;;;18.45;10.23;;;;;;;5.70;100.00;100630.56;5041366;28;20029;-33
2023/03/02 02:39:31;;;;;;;25.75;10.27;;;;;;;5.76;100.00;100662.47;5033128;28;20115;-32
2023/03/02 02:42:00;;;;;;;23.63;11.20;;;;;;;5.68;100.00;100637.84;5038623;28;20390;-32
2023/03/02 02:44:28;;;;;;;27.80;15.05;;;;;;;5.83;100.00;100650.19;5039578;28;20424;-31
2023/03/02 02:46:53;;;;;;;27.65;16.42;;;;;;;5.56;100.00;100624.19;5050847;28;20029;-35
2023/03/02 02:49:32;;;;;;;24.50;10.68;;;;;;;5.57;100.00;100653.09;5045043;28;20044;-32
2023/03/02 02:51:59;;;;;;;20.70;11.32;;;;;;;5.46;100.00;100639.44;5046491;28;20060;-31
2023/03/02 02:54:29;;;;;;;21.27;12.57;;;;;;;5.59;100.00;100640.53;5038035;28;20033;-37
2023/03/02 02:56:57;;;;;;;21.63;11.35;;;;;;;5.72;100.00;100650.56;5045796;28;20051;-32
2023/03/02 02:59:27;;;;;;;21.75;12.30;;;;;;;5.57;100.00;100644.34;5034333;28;20099;-31
2023/03/02 03:01:54;;;;;;;22.42;13.43;;;;;;;5.72;100.00;100641.78;5040012;28;20037;-32
2023/03/02 03:04:24;;;;;;;25.50;14.98;;;;;;;5.69;100.00;100639.50;5038752;28;20044;-34
2023/03/02 03:06:50;;;;;;;25.88;15.50;;;;;;;5.68;100.00;100637.84;5045735;28;20489;-33
2023/03/02 03:09:15;;;;;;;37.28;25.45;;;;;;;5.70;100.00;100641.13;5038408;28;20048;-30
2023/03/02 03:11:43;;;;;;;24.13;12.68;;;;;;;5.42;100.00;100618.63;5031849;28;20029;-30
2023/03/02 03:14:12;;;;;;;23.08;11.90;;;;;;;5.52;100.00;100639.56;5041860;28;20108;-32
2023/03/02 03:16:42;;;;;;;21.13;12.07;;;;;;;5.47;100.00;100636.59;5040354;28;20055;-33
2023/03/02 03:19:14;;;;;;;28.08;14.93;;;;;;;5.52;100.00;100634.28;5042964;28;20102;-32
2023/03/02 03:21:40;;;;;;;30.33;16.73;;;;;;;5.33;100.00;100611.72;5034165;28;20032;-31
2023/03/02 03:24:06;;;;;;;28.95;16.50;;;;;;;5.30;100.00;100630.56;5039914;28;20028;-31
2023/03/02 03:26:31;;;;;;;27.25;14.80;;;;;;;5.50;100.00;100625.69;5037096;28;20037;-33
2023/03/02 03:28:59;;;;;;;20.73;10.02;;;;;;;5.19;100.00;100607.97;5039236;28;20040;-34
2023/03/02 03:31:26;;;;;;;20.25;9.98;;;;;;;5.52;100.00;100621.06;5034126;28;20087;-32
2023/03/02 03:33:54;;;;;;;28.48;16.77;;;;;;;5.52;100.00;100628.19;5039338;28;20373;-35
2023/03/02 03:36:19;;;;;;;21.97;11.00;;;;;;;5.41;100.00;100624.91;5038103;28;20033;-32
2023/03/02 03:38:45;;;;;;;25.63;13.98;;;;;;;5.47;100.00;100618.09;5039314;28;20037;-31
2023/03/02 03:41:11;;;;;;;39.63;22.90;;;;;;;5.54;100.00;100627.00;5039246;28;20025;-32
2023/03/02 03:43:37;;;;;;;34.38;18.08;;;;;;;5.34;100.00;100608.06;5036179;28;20142;-33
2023/03/02 03:46:02;;;;;;;28.15;14.80;;;;;;;5.36;100.00;100618.47;5038454;28;20108;-33
2023/03/02 03:48:28;;;;;;;39.03;20.58;;;;;;;5.37;100.00;100620.09;5032172;28;20497;-36
2023/03/02 03:50:56;;;;;;;37.17;20.25;;;;;;;5.26;100.00;100602.00;5041079;28;20032;-33
2023/03/02 03:53:22;;;;;;;48.65;25.50;;;;;;;5.75;100.00;100622.94;5033794;28;20040;-33
2023/03/02 03:55:49;;;;;;;19.30;9.65;;;;;;;5.32;100.00;100611.88;5039134;28;20029;-37
2023/03/02 03:58:15;;;;;;;19.10;11.35;;;;;;;5.49;100.00;100629.31;5033424;28;20029;-31
2023/03/02 04:00:40;;;;;;;27.40;11.18;;;;;;;5.42;100.00;100634.47;5040333;28;20037;-32
2023/03/02 04:03:06;;;;;;;23.33;10.82;;;;;;;5.33;100.00;100635.53;5038624;28;20115;-31
2023/03/02 04:05:32;;;;;;;22.73;11.32;;;;;;;5.21;100.00;100620.97;5039324;28;20535;-34
2023/03/02 04:08:00;;;;;;;25.35;11.10;;;;;;;5.47;100.00;100631.31;5041657;28;20060;-33
2023/03/02 04:10:27;;;;;;;27.63;12.05;;;;;;;5.42;100.00;100633.66;5030831;28;20034;-31
2023/03/02 04:12:52;;;;;;;27.48;11.68;;;;;;;5.15;100.00;100621.66;5046289;28;20033;-30
2023/03/02 04:15:18;;;;;;;23.08;11.07;;;;;;;5.04;100.00;100621.03;5050051;28;20037;-30
2023/03/02 04:17:43;;;;;;;24.50;10.38;;;;;;;5.22;100.00;100634.03;5050348;28;20032;-35
2023/03/02 04:20:15;;;;;;;27.33;13.15;;;;;;;5.21;100.00;100610.41;5050655;28;20448;-32
2023/03/02 04:22:42;;;;;;;27.65;14.20;;;;;;;5.34;100.00;100609.88;5049022;28;20082;-34
2023/03/02 04:25:08;;;;;;;52.47;31.13;;;;;;;5.41;100.00;100624.91;5050360;28;20098;-33
2023/03/02 04:27:34;;;;;;;57.35;33.97;;;;;;;5.30;100.00;100630.56;5049993;28;20489;-32
2023/03/02 04:30:02;;;;;;;86.57;55.00;;;;;;;5.24;100.00;100631.25;5050425;28;20037;-31
2023/03/02 04:32:28;;;;;;;78.45;47.67;;;;;;;5.24;100.00;100605.59;5050018;28;20025;-33
2023/03/02 04:34:53;;;;;;;29.20;18.88;;;;;;;5.48;100.00;100632.97;5050100;28;20025;-33
2023/03/02 04:37:19;;;;;;;46.05;30.08;;;;;;;5.38;100.00;100609.38;5049549;28;20131;-33
2023/03/02 04:39:48;;;;;;;31.50;16.77;;;;;;;5.45;100.00;100625.38;5048602;28;20025;-27
2023/03/02 04:42:14;;;;;;;56.63;32.33;;;;;;;5.45;100.00;100617.44;5048479;28;20040;-35
2023/03/02 04:44:39;;;;;;;91.05;51.80;;;;;;;5.49;100.00;100628.50;5050031;28;20029;-33
2023/03/02 04:47:08;;;;;;;65.20;41.70;;;;;;;5.41;100.00;100632.00;5048734;28;20064;-32
2023/03/02 04:49:34;;;;;;;136.35;70.90;;;;;;;5.56;100.00;100627.66;5048288;28;20028;-35
2023/03/02 04:51:59;;;;;;;72.30;42.03;;;;;;;5.55;100.00;100641.03;5049811;28;20025;-38
2023/03/02 04:54:25;;;;;;;58.15;38.50;;;;;;;5.58;100.00;100638.06;5049561;28;20045;-32
2023/03/02 04:56:52;;;;;;;45.35;24.50;;;;;;;5.55;100.00;100633.94;5049444;28;20104;-30
2023/03/02 04:59:21;;;;;;;62.47;39.75;;;;;;;5.61;100.00;100640.34;5049419;28;20052;-31
2023/03/02 05:01:49;;;;;;;56.53;35.97;;;;;;;5.55;100.00;100643.69;5049615;28;20055;-35
2023/03/02 05:04:17;;;;;;;39.58;24.30;;;;;;;5.56;100.00;100625.00;5047958;28;20033;-31
2023/03/02 05:06:43;;;;;;;40.35;22.92;;;;;;;5.60;100.00;100647.47;5049439;28;20078;-33
2023/03/02 05:09:09;;;;;;;29.27;14.75;;;;;;;5.57;100.00;100637.22;5048145;28;20029;-35
2023/03/02 05:11:35;;;;;;;26.42;15.38;;;;;;;5.41;100.00;100626.72;5048716;28;20072;-32
2023/03/02 05:14:06;;;;;;;23.48;12.93;;;;;;;5.59;100.00;100651.09;5049376;28;20464;-32
2023/03/02 05:16:34;;;;;;;109.57;78.53;;;;;;;5.63;100.00;100636.53;5049432;28;20048;-33
2023/03/02 05:19:00;;;;;;;;;;;;;;;5.59;100.00;100666.97;5049960;28;20033;-32
2023/03/02 05:21:26;;;;;;;106.80;57.80;;;;;;;5.69;100.00;100660.66;5047689;28;19916;-32
2023/03/02 05:23:52;;;;;;;36.72;19.58;;;;;;;5.63;100.00;100647.13;5049200;28;20496;-33
2023/03/02 05:26:18;;;;;;;68.15;36.28;;;;;;;5.60;100.00;100650.13;5049421;28;20052;-31
2023/03/02 05:28:44;;;;;;;164.88;81.43;;;;;;;5.46;100.00;100642.91;5049340;28;20061;-32
2023/03/02 05:31:17;;;;;;;109.15;55.47;;;;;;;5.52;100.00;100650.16;5049239;28;20060;-35
2023/03/02 05:33:42;;;;;;;39.72;22.63;;;;;;;5.69;100.00;100665.97;5049206;28;20020;-32
2023/03/02 05:36:08;;;;;;;59.83;33.33;;;;;;;5.63;100.00;100647.13;5049128;28;20047;-34
2023/03/02 05:38:35;;;;;;;45.28;24.20;;;;;;;5.76;100.00;100667.75;5047451;28;20087;-32
2023/03/02 05:41:01;;;;;;;65.72;33.70;;;;;;;5.74;100.00;100668.91;5049212;28;20025;-33
2023/03/02 05:43:27;;;;;;;52.65;29.52;;;;;;;5.61;100.00;100657.06;5047387;28;20143;-32
2023/03/02 05:45:54;;;;;;;57.10;31.52;;;;;;;5.87;100.00;100677.13;5049019;28;20104;-31
2023/03/02 05:48:20;;;;;;;92.40;46.28;;;;;;;5.70;100.00;100657.00;5048649;28;20037;-32
2023/03/02 05:50:45;;;;;;;86.70;43.55;;;;;;;5.96;100.00;100685.88;5048889;28;20028;-33
2023/03/02 05:53:11;;;;;;;77.40;40.05;;;;;;;5.75;100.00;100681.16;5048793;28;20029;-31
2023/03/02 05:55:36;;;;;;;80.43;41.72;;;;;;;5.48;100.00;100663.91;5048615;28;20061;-32
2023/03/02 05:58:04;;;;;;;114.75;59.78;;;;;;;5.32;100.00;100654.19;5048809;28;20505;-33
2023/03/02 06:00:30;;;;;;;34.22;18.42;;;;;;;5.51;100.00;100685.53;5047473;28;20052;-31
2023/03/02 06:02:55;;;;;;;81.75;43.55;;;;;;;5.64;100.00;100696.41;5048814;28;20477;-31
2023/03/02 06:05:21;;;;;;;64.00;35.80;;;;;;;5.46;100.00;100677.28;5048386;28;20032;-32
2023/03/02 06:07:47;;;;;;;92.32;48.78;;;;;;;5.46;100.00;100698.47;5048514;28;20037;-34
2023/03/02 06:10:13;;;;;;;33.47;17.30;;;;;;;5.37;100.00;100694.16;5048754;28;20037;-33
2023/03/02 06:12:39;;;;;;;86.82;38.00;;;;;;;5.50;100.00;100688.38;5048829;28;20032;-32
2023/03/02 06:15:06;;;;;;;158.48;77.35;;;;;;;5.52;100.00;100673.97;5048854;28;20039;-32
2023/03/02 06:17:31;;;;;;;28.73;14.45;;;;;;;5.40;100.00;100680.63;5030537;28;20640;-31
2023/03/02 06:19:57;;;;;;;23.77;12.82;;;;;;;5.55;100.00;100676.25;5048664;28;20033;-33
2023/03/02 06:22:22;;;;;;;26.23;14.02;;;;;;;5.58;100.00;100678.56;5048311;28;20108;-31
2023/03/02 06:24:48;;;;;;;28.25;13.68;;;;;;;5.69;100.00;100687.13;5047471;28;20017;-32
2023/03/02 06:27:14;;;;;;;92.07;38.08;;;;;;;5.56;100.00;100693.78;5048016;28;20436;-43
2023/03/02 06:29:39;;;;;;;104.30;51.42;;;;;;;5.64;100.00;100695.59;5048567;28;20113;-32
2023/03/02 06:32:05;;;;;;;105.72;55.90;;;;;;;5.53;100.00;100688.84;5048436;28;20032;-31
2023/03/02 06:34:33;;;;;;;30.73;17.05;;;;;;;5.66;100.00;100706.84;5048421;28;20109;-32
2023/03/02 06:36:59;;;;;;;52.58;25.60;;;;;;;5.64;100.00;100680.53;5048256;28;20493;-31
2023/03/02 06:39:26;;;;;;;29.13;15.60;;;;;;;5.57;100.00;100690.13;5047966;28;20029;-33
2023/03/02 06:41:52;;;;;;;168.48;69.97;;;;;;;5.61;100.00;100680.88;5048470;28;20068;-31
2023/03/02 06:44:17;;;;;;;123.55;50.88;;;;;;;5.69;100.00;100714.41;5048484;28;20112;-33
2023/03/02 06:46:44;;;;;;;44.63;21.35;;;;;;;5.83;100.00;100699.66;5048491;28;20037;-34
2023/03/02 06:49:10;;;;;;;194.90;79.82;;;;;;;5.69;100.00;100713.59;5047093;28;20400;-36
2023/03/02 06:51:37;;;;;;;27.13;14.65;;;;;;;5.78;100.00;100701.97;5047943;28;20029;-34
2023/03/02 06:54:06;;;;;;;53.53;24.02;;;;;;;5.74;100.00;100695.38;5048241;28;20021;-33
2023/03/02 06:56:32;;;;;;;43.83;22.50;;;;;;;5.77;100.00;100716.22;5048417;28;20037;-32
2023/03/02 06:58:57;;;;;;;83.38;40.17;;;;;;;5.69;100.00;100695.06;5048747;28;20496;-33
2023/03/02 07:01:23;;;;;;;34.28;16.13;;;;;;;5.69;100.00;100698.53;5050475;28;20116;-34
2023/03/02 07:03:48;;;;;;;106.03;46.42;;;;;;;5.81;100.00;100712.22;5051907;28;20546;-35
2023/03/02 07:06:13;;;;;;;163.70;68.40;;;;;;;5.96;100.00;100699.13;5051586;28;20082;-31
2023/03/02 07:08:40;;;;;;;208.63;81.18;;;;;;;5.95;100.00;100719.47;5052064;28;20033;-32
2023/03/02 07:11:09;;;;;;;109.72;47.85;;;;;;;5.92;100.00;100714.47;5051711;28;20033;-32
2023/03/02 07:13:36;;;;;;;146.57;58.45;;;;;;;5.97;100.00;100722.78;5051536;28;20024;-32
2023/03/02 07:16:06;;;;;;;55.05;22.75;;;;;;;5.87;100.00;100711.53;5051668;28;20052;-32
2023/03/02 07:18:31;;;;;;;415.35;127.53;;;;;;;5.83;100.00;100694.34;5051349;28;20104;-31
2023/03/02 07:20:57;;;;;;;466.88;129.20;;;;;;;5.77;100.00;100702.97;5051714;28;20031;-36
2023/03/02 07:23:22;;;;;;;339.75;98.65;;;;;;;5.83;100.00;100726.13;5050121;28;20044;-31
2023/03/02 07:25:47;;;;;;;31.60;16.20;;;;;;;5.88;100.00;100721.13;5051574;28;20032;-34
2023/03/02 07:28:13;;;;;;;159.32;52.75;;;;;;;5.93;100.00;100717.97;5051353;28;20795;-32
2023/03/02 07:30:38;;;;;;;65.22;24.70;;;;;;;5.77;100.00;100705.63;5051670;28;20029;-32
2023/03/02 07:33:04;;;;;;;58.63;24.00;;;;;;;5.93;100.00;100721.44;5051083;28;20404;-33
2023/03/02 07:35:29;;;;;;;32.65;16.45;;;;;;;5.93;100.00;100721.44;5050947;28;20025;-31
2023/03/02 07:37:55;;;;;;;26.17;12.70;;;;;;;5.72;100.00;100714.09;5049725;28;20057;-32
2023/03/02 07:40:20;;;;;;;413.52;123.65;;;;;;;5.93;100.00;100724.09;5051409;28;20495;-31
2023/03/02 07:42:45;;;;;;;450.90;129.32;;;;;;;5.97;100.00;100728.06;5049369;28;20502;-34
2023/03/02 07:45:11;;;;;;;63.85;24.52;;;;;;;5.83;100.00;100710.22;5051137;28;20033;-31
2023/03/02 07:47:39;;;;;;;28.40;14.10;;;;;;;5.92;100.00;100725.06;5050745;28;20024;-34
2023/03/02 07:50:05;;;;;;;76.47;30.63;;;;;;;5.90;100.00;100705.88;5050986;28;20116;-34
2023/03/02 07:52:30;;;;;;;65.13;36.92;;;;;;;5.67;100.00;100694.41;5049621;28;20124;-33
2023/03/02 07:54:56;;;;;;;51.67;32.53;;;;;;;6.02;100.00;100725.72;5051126;28;20635;-35
2023/03/02 07:57:21;;;;;;;36.08;19.42;;;;;;;5.83;100.00;100699.66;5050626;28;20095;-34
2023/03/02 07:59:47;;;;;;;37.13;21.92;;;;;;;5.87;100.00;100713.38;5050716;28;20036;-33
2023/03/02 08:02:14;;;;;;;42.47;25.02;;;;;;;6.15;100.00;100709.28;5050671;28;20036;-33
2023/03/02 08:04:40;;;;;;;38.17;23.13;;;;;;;6.04;100.00;100717.59;5050636;28;20456;-35
2023/03/02 08:07:05;;;;;;;38.42;18.85;;;;;;;6.19;100.00;100720.34;5049544;28;20025;-33
2023/03/02 08:09:31;;;;;;;55.28;32.90;;;;;;;5.82;100.00;100705.91;5050263;28;20028;-33
2023/03/02 08:11:56;;;;;;;53.85;30.42;;;;;;;6.10;100.00;100716.09;5049189;28;20044;-32
2023/03/02 08:14:22;;;;;;;35.47;19.75;;;;;;;5.98;100.00;100702.41;5050507;28;20029;-33
2023/03/02 08:16:48;;;;;;;46.63;28.13;;;;;;;5.93;100.00;100710.03;5050374;28;20031;-35
2023/03/02 08:19:13;;;;;;;37.78;20.27;;;;;;;6.07;100.00;100717.28;5050148;28;20400;-36
2023/03/02 08:21:38;;;;;;;32.67;19.13;;;;;;;6.02;100.00;100709.00;5048979;28;20037;-31
2023/03/02 08:24:04;;;;;;;63.03;37.70;;;;;;;6.29;100.00;100714.81;5050521;28;20091;-32
2023/03/02 08:26:30;;;;;;;36.90;20.50;;;;;;;6.27;100.00;100733.53;5050087;28;20024;-32
2023/03/02 08:28:55;;;;;;;30.15;15.88;;;;;;;5.95;100.00;100706.25;5050305;28;20108;-32
2023/03/02 08:31:21;;;;;;;33.22;18.23;;;;;;;6.01;100.00;100716.13;5049942;28;20040;-34
2023/03/02 08:33:46;;;;;;;50.90;25.90;;;;;;;6.10;100.00;100718.75;5050382;28;20029;-32
2023/03/02 08:36:14;;;;;;;37.00;18.52;;;;;;;6.09;100.00;100720.56;5050586;28;20044;-34
2023/03/02 08:38:40;;;;;;;41.83;23.88;;;;;;;5.94;100.00;100706.38;5049797;28;20025;-31
2023/03/02 08:41:09;;;;;;;44.15;25.27;;;;;;;6.06;100.00;100704.19;5050119;28;20041;-31
2023/03/02 08:43:36;;;;;;;41.28;20.65;;;;;;;6.00;100.00;100693.28;5049454;28;20060;-31
2023/03/02 08:46:02;;;;;;;42.75;24.10;;;;;;;6.16;100.00;100704.81;5049915;28;20029;-32
2023/03/02 08:48:28;;;;;;;43.45;25.25;;;;;;;6.16;100.00;100720.69;5049958;28;20048;-31
2023/03/02 08:51:00;;;;;;;43.28;24.75;;;;;;;6.12;100.00;100716.75;5049822;28;20060;-33
2023/03/02 08:53:27;;;;;;;44.95;24.25;;;;;;;6.10;100.00;100711.63;5049318;28;20033;-33
2023/03/02 08:55:52;;;;;;;51.83;29.10;;;;;;;6.18;100.00;100693.03;5048423;28;20028;-33
2023/03/02 08:58:20;;;;;;;43.72;23.30;;;;;;;6.39;100.00;100710.13;5049598;28;20424;-33
2023/03/02 09:00:46;;;;;;;47.00;22.70;;;;;;;6.28;100.00;100694.66;5049254;28;20028;-33
2023/03/02 09:03:12;;;;;;;46.20;23.92;;;;;;;6.27;100.00;100707.03;5049316;28;20052;-35
2023/03/02 09:05:38;;;;;;;53.88;29.25;;;;;;;6.23;100.00;100690.69;5049402;28;20021;-32
2023/03/02 09:08:03;;;;;;;45.33;23.13;;;;;;;6.29;100.00;100702.41;5049635;28;20029;-33
2023/03/02 09:10:29;;;;;;;45.88;23.55;;;;;;;6.36;100.00;100700.72;5049400;28;20036;-33
2023/03/02 09:12:54;;;;;;;40.80;23.35;;;;;;;6.51;100.00;100681.41;5049788;28;20044;-36
2023/03/02 09:15:20;;;;;;;46.03;24.60;;;;;;;6.32;100.00;100690.66;5049093;28;20055;-31
2023/03/02 09:17:45;;;;;;;42.88;24.48;;;;;;;6.43;100.00;100691.03;5048075;28;20029;-33
2023/03/02 09:20:11;;;;;;;39.13;22.23;;;;;;;6.60;100.00;100690.97;5049670;28;20162;-32
2023/03/02 09:22:36;;;;;;;42.58;20.98;;;;;;;6.46;100.00;100681.09;5048681;28;20028;-35
2023/03/02 09:25:03;;;;;;;42.60;22.33;;;;;;;6.57;100.00;100702.72;5048019;28;20040;-37
2023/03/02 09:27:29;;;;;;;47.55;25.55;;;;;;;6.60;100.00;100685.66;5049085;28;20523;-34
2023/03/02 09:29:55;;;;;;;45.65;25.33;;;;;;;6.48;100.00;100681.75;5049131;28;20033;-35
2023/03/02 09:32:20;;;;;;;44.67;24.42;;;;;;;6.51;100.00;100682.22;5048929;28;20485;-34
2023/03/02 09:34:46;;;;;;;47.53;25.80;;;;;;;6.52;100.00;100694.47;5048786;28;20048;-34
2023/03/02 09:37:11;;;;;;;40.03;22.02;;;;;;;6.43;100.00;100691.03;5049136;28;20028;-37
2023/03/02 09:39:38;;;;;;;69.97;30.98;;;;;;;6.37;100.00;100693.59;5048701;28;20036;-36
2023/03/02 09:42:17;;;;;;;75.63;35.47;;;;;;;6.21;100.00;100675.97;5047402;28;20049;-34
2023/03/02 09:44:51;;;;;;;561.10;182.75;;;;;;;6.49;100.00;100699.31;5049255;28;20029;-35
2023/03/02 09:47:42;;;;;;;125.90;51.22;;;;;;;6.58;100.00;100699.06;5048701;28;20090;-36
2023/03/02 09:50:35;;;;;;;201.23;115.53;;;;;;;6.77;100.00;100695.13;5048923;28;20086;-34
2023/03/02 09:53:16;;;;;;;77.60;49.97;;;;;;;6.73;100.00;100691.16;5048935;28;20065;-34
2023/03/02 09:55:45;;;;;;;46.67;30.83;;;;;;;6.44;100.00;100684.75;5049150;28;20029;-35
2023/03/02 09:58:19;;;;;;;82.22;49.38;;;;;;;6.60;100.00;100677.72;5049087;28;20064;-34
2023/03/02 10:00:45;;;;;;;36.85;19.92;;;;;;;6.66;100.00;100687.59;5048585;28;20448;-36
2023/03/02 10:03:26;;;;;;;38.33;25.05;;;;;;;6.73;100.00;100671.81;5048637;28;20029;-34
2023/03/02 10:05:54;;;;;;;44.60;31.58;;;;;;;6.50;100.00;100685.88;5048662;28;20074;-37
2023/03/02 10:08:26;;;;;;;39.38;22.45;;;;;;;6.41;100.00;100673.69;5049043;28;20098;-35
2023/03/02 10:11:09;;;;;;;32.38;20.08;;;;;;;6.57;100.00;100686.81;5048837;28;20033;-34
2023/03/02 10:13:45;;;;;;;32.47;19.67;;;;;;;6.86;100.00;100685.25;5048337;28;20078;-37
2023/03/02 10:16:29;;;;;;;31.95;17.55;;;;;;;6.82;100.00;100690.13;5048880;28;20017;-33
2023/03/02 10:19:40;;;;;;;31.55;18.00;;;;;;;6.59;100.00;100686.66;5048899;28;20025;-34
2023/03/02 10:22:22;;;;;;;40.58;25.88;;;;;;;6.46;100.00;100674.00;5047567;28;20048;-34
2023/03/02 10:25:16;;;;;;;31.83;18.38;;;;;;;6.60;100.00;100680.34;5048788;28;20112;-35
2023/03/02 10:27:46;;;;;;;36.17;21.98;;;;;;;6.61;100.00;100677.50;5048582;28;20036;-34
2023/03/02 10:30:29;;;;;;;30.60;17.98;;;;;;;6.72;100.00;100683.38;5048652;28;20035;-36
2023/03/02 10:33:00;;;;;;;33.13;19.38;;;;;;;6.67;100.00;100677.81;5049219;28;20467;-33
2023/03/02 10:35:27;;;;;;;47.05;28.88;;;;;;;6.77;100.00;100650.03;5052415;28;20039;-32
2023/03/02 10:38:00;;;;;;;37.60;21.10;;;;;;;6.92;100.00;100667.81;5052271;28;20033;-35
2023/03/02 10:40:41;;;;;;;29.92;17.98;;;;;;;7.18;100.00;100662.91;5052556;28;20032;-34
2023/03/02 10:43:14;;;;;;;35.22;21.67;;;;;;;6.83;100.00;100662.59;5052034;28;20053;-35
2023/03/02 10:45:40;;;;;;;23.98;14.82;;;;;;;6.76;100.00;100653.72;5052865;28;20502;-35
2023/03/02 10:48:11;;;;;;;28.52;17.83;;;;;;;6.58;100.00;100642.59;5051955;28;20128;-33
2023/03/02 10:50:37;;;;;;;38.30;22.17;;;;;;;6.76;100.00;100653.72;5050721;28;20060;-34
2023/03/02 10:53:05;;;;;;;28.90;17.92;;;;;;;6.85;100.00;100649.16;5051778;28;20037;-33
2023/03/02 10:55:31;;;;;;;;;;;;;;;6.80;100.00;100648.84;5051024;28;20029;-33
2023/03/02 10:58:00;;;;;;;26.77;16.23;;;;;;;7.00;100.00;100643.88;5052143;28;19982;-32
2023/03/02 11:00:27;;;;;;;40.45;21.30;;;;;;;6.75;100.00;100641.44;5052082;28;20082;-35
2023/03/02 11:02:59;;;;;;;122.73;66.80;;;;;;;6.74;100.00;100634.50;5052095;28;20116;-32
2023/03/02 11:05:30;;;;;;;46.70;24.77;;;;;;;6.83;100.00;100649.31;5051565;28;20029;-33
2023/03/02 11:08:03;;;;;;;64.57;33.67;;;;;;;6.75;100.00;100620.25;5051555;28;20066;-34
2023/03/02 11:10:35;;;;;;;29.85;17.00;;;;;;;6.98;100.00;100632.63;5051949;28;20028;-27
2023/03/02 11:13:13;;;;;;;44.83;25.13;;;;;;;6.90;100.00;100627.41;5051408;28;20017;-34